sensor_id;sensor_type;location;lat;lon;timestamp;pressure;altitude;pressure_sealevel;temperature;humidity
79544;BME280;68994;47.176;7.534;2023-04-03T00:00:26;96312.41;;;7.30;85.65
79544;BME280;68994;47.176;7.534;2023-04-03T00:02:53;96316.19;;;7.34;84.28
79544;BME280;68994;47.176;7.534;2023-04-03T00:05:21;96322.13;;;7.36;84.52
79544;BME280;68994;47.176;7.534;2023-04-03T00:07:47;96318.97;;;7.39;84.53
79544;BME280;68994;47.176;7.534;2023-04-03T00:10:15;96318.97;;;7.39;84.33
79544;BME280;68994;47.176;7.534;2023-04-03T00:12:41;96324.28;;;7.39;84.05
79544;BME280;68994;47.176;7.534;2023-04-03T00:15:09;96324.28;;;7.39;83.89
79544;BME280;68994;47.176;7.534;2023-04-03T00:17:35;96322.69;;;7.38;83.58
79544;BME280;68994;47.176;7.534;2023-04-03T00:20:03;96317.94;;;7.40;82.86
79544;BME280;68994;47.176;7.534;2023-04-03T00:22:31;96320.25;;;7.36;82.79
79544;BME280;68994;47.176;7.534;2023-04-03T00:24:58;96320.97;;;7.55;81.83
79544;BME280;68994;47.176;7.534;2023-04-03T00:27:24;96315.53;;;7.38;82.58
79544;BME280;68994;47.176;7.534;2023-04-03T00:29:51;96310.78;;;7.40;82.36
79544;BME280;68994;47.176;7.534;2023-04-03T00:32:18;96322.34;;;7.34;83.01
79544;BME280;68994;47.176;7.534;2023-04-03T00:34:44;96322.47;;;7.39;82.18
79544;BME280;68994;47.176;7.534;2023-04-03T00:37:11;96321.19;;;7.42;82.54
79544;BME280;68994;47.176;7.534;2023-04-03T00:39:39;96316.31;;;7.39;82.18
79544;BME280;68994;47.176;7.534;2023-04-03T00:42:06;96311.28;;;7.37;82.94
79544;BME280;68994;47.176;7.534;2023-04-03T00:47:36;96311.63;;;7.41;82.13
79544;BME280;68994;47.176;7.534;2023-04-03T00:50:05;96302.03;;;7.40;81.32
79544;BME280;68994;47.176;7.534;2023-04-03T00:52:32;96298.91;;;7.43;81.08
79544;BME280;68994;47.176;7.534;2023-04-03T00:55:03;96306.88;;;7.31;81.33
79544;BME280;68994;47.176;7.534;2023-04-03T00:57:30;96299.34;;;7.16;80.96
79544;BME280;68994;47.176;7.534;2023-04-03T01:00:03;96304.44;;;7.30;80.79
79544;BME280;68994;47.176;7.534;2023-04-03T01:02:31;96307.53;;;7.27;80.41
79544;BME280;68994;47.176;7.534;2023-04-03T01:04:58;96312.16;;;7.19;81.78
79544;BME280;68994;47.176;7.534;2023-04-03T01:07:28;96302.91;;;7.10;83.01
79544;BME280;68994;47.176;7.534;2023-04-03T01:09:57;96302.66;;;7.12;81.22
79544;BME280;68994;47.176;7.534;2023-04-03T01:12:27;96304.19;;;7.19;81.55
79544;BME280;68994;47.176;7.534;2023-04-03T01:14:57;96304.53;;;7.23;81.81
79544;BME280;68994;47.176;7.534;2023-04-03T01:17:28;96304.66;;;7.16;81.88
79544;BME280;68994;47.176;7.534;2023-04-03T01:20:05;96299.66;;;7.08;82.86
79544;BME280;68994;47.176;7.534;2023-04-03T01:22:39;96305.09;;;7.13;81.87
79544;BME280;68994;47.176;7.534;2023-04-03T01:25:08;96306.81;;;7.08;82.60
79544;BME280;68994;47.176;7.534;2023-04-03T01:27:35;96314.56;;;7.09;83.39
79544;BME280;68994;47.176;7.534;2023-04-03T01:30:02;96312.22;;;7.01;83.17
79544;BME280;68994;47.176;7.534;2023-04-03T01:32:31;96306.09;;;7.00;82.74
79544;BME280;68994;47.176;7.534;2023-04-03T01:34:57;96317.41;;;6.96;83.47
79544;BME280;68994;47.176;7.534;2023-04-03T01:37:24;96308.66;;;7.07;82.91
79544;BME280;68994;47.176;7.534;2023-04-03T01:39:50;96313.50;;;7.10;83.30
79544;BME280;68994;47.176;7.534;2023-04-03T01:42:17;96318.00;;;6.98;83.17
79544;BME280;68994;47.176;7.534;2023-04-03T01:44:43;96316.13;;;6.98;82.59
79544;BME280;68994;47.176;7.534;2023-04-03T01:47:11;96313.84;;;7.02;82.91
79544;BME280;68994;47.176;7.534;2023-04-03T01:49:39;96317.19;;;6.97;82.72
79544;BME280;68994;47.176;7.534;2023-04-03T01:52:05;96314.88;;;7.01;81.97
79544;BME280;68994;47.176;7.534;2023-04-03T01:54:32;96323.16;;;6.93;82.08
79544;BME280;68994;47.176;7.534;2023-04-03T01:56:58;96309.44;;;6.96;82.36
79544;BME280;68994;47.176;7.534;2023-04-03T01:59:25;96313.44;;;6.86;81.21
79544;BME280;68994;47.176;7.534;2023-04-03T02:01:51;96325.34;;;6.84;80.91
79544;BME280;68994;47.176;7.534;2023-04-03T02:04:18;96320.06;;;6.96;80.43
79544;BME280;68994;47.176;7.534;2023-04-03T02:06:46;96324.38;;;6.78;81.48
79544;BME280;68994;47.176;7.534;2023-04-03T02:09:13;96323.66;;;6.71;81.16
79544;BME280;68994;47.176;7.534;2023-04-03T02:11:39;96322.63;;;6.72;81.52
79544;BME280;68994;47.176;7.534;2023-04-03T02:14:06;96322.56;;;6.79;79.80
79544;BME280;68994;47.176;7.534;2023-04-03T02:16:32;96323.44;;;6.73;79.79
79544;BME280;68994;47.176;7.534;2023-04-03T02:18:59;96322.94;;;6.64;81.06
79544;BME280;68994;47.176;7.534;2023-04-03T02:21:26;96323.97;;;6.63;80.38
79544;BME280;68994;47.176;7.534;2023-04-03T02:23:54;96324.09;;;6.68;80.28
79544;BME280;68994;47.176;7.534;2023-04-03T02:26:20;96324.47;;;6.72;79.80
79544;BME280;68994;47.176;7.534;2023-04-03T02:28:47;96321.31;;;6.63;81.13
79544;BME280;68994;47.176;7.534;2023-04-03T02:31:14;96323.84;;;6.58;80.65
79544;BME280;68994;47.176;7.534;2023-04-03T02:33:40;96323.38;;;6.61;80.05
79544;BME280;68994;47.176;7.534;2023-04-03T02:36:08;96330.78;;;6.40;81.03
79544;BME280;68994;47.176;7.534;2023-04-03T02:38:35;96326.88;;;6.43;80.54
79544;BME280;68994;47.176;7.534;2023-04-03T02:41:05;96335.47;;;6.57;80.20
79544;BME280;68994;47.176;7.534;2023-04-03T02:43:31;96330.09;;;6.45;80.53
79544;BME280;68994;47.176;7.534;2023-04-03T02:45:58;96323.72;;;6.34;81.67
79544;BME280;68994;47.176;7.534;2023-04-03T02:48:25;96323.28;;;6.37;81.01
79544;BME280;68994;47.176;7.534;2023-04-03T02:50:52;96323.81;;;6.27;81.68
79544;BME280;68994;47.176;7.534;2023-04-03T02:53:18;96333.88;;;6.37;80.32
79544;BME280;68994;47.176;7.534;2023-04-03T02:55:45;96322.53;;;6.30;81.03
79544;BME280;68994;47.176;7.534;2023-04-03T02:58:14;96326.53;;;6.21;81.32
79544;BME280;68994;47.176;7.534;2023-04-03T03:00:40;96328.81;;;6.17;80.73
79544;BME280;68994;47.176;7.534;2023-04-03T03:03:07;96333.47;;;6.22;79.40
79544;BME280;68994;47.176;7.534;2023-04-03T03:05:34;96329.41;;;6.19;80.32
79544;BME280;68994;47.176;7.534;2023-04-03T03:08:01;96328.06;;;6.10;81.38
79544;BME280;68994;47.176;7.534;2023-04-03T03:10:27;96338.28;;;6.06;80.43
79544;BME280;68994;47.176;7.534;2023-04-03T03:12:54;96339.78;;;6.02;81.10
79544;BME280;68994;47.176;7.534;2023-04-03T03:15:22;96338.56;;;5.98;80.93
79544;BME280;68994;47.176;7.534;2023-04-03T03:17:48;96343.00;;;6.04;80.83
79544;BME280;68994;47.176;7.534;2023-04-03T03:20:15;96335.06;;;6.04;80.52
79544;BME280;68994;47.176;7.534;2023-04-03T03:22:42;96343.16;;;6.09;79.79
79544;BME280;68994;47.176;7.534;2023-04-03T03:25:08;96332.03;;;6.01;79.03
79544;BME280;68994;47.176;7.534;2023-04-03T03:27:35;96343.28;;;5.96;79.95
79544;BME280;68994;47.176;7.534;2023-04-03T03:30:03;96344.69;;;5.99;80.24
79544;BME280;68994;47.176;7.534;2023-04-03T03:32:31;96340.94;;;6.06;80.05
79544;BME280;68994;47.176;7.534;2023-04-03T03:34:58;96342.88;;;5.92;79.85
79544;BME280;68994;47.176;7.534;2023-04-03T03:37:24;96338.03;;;5.89;79.50
79544;BME280;68994;47.176;7.534;2023-04-03T03:39:51;96340.91;;;5.88;79.95
79544;BME280;68994;47.176;7.534;2023-04-03T03:42:17;96341.78;;;5.82;80.25
79544;BME280;68994;47.176;7.534;2023-04-03T03:44:44;96336.94;;;5.79;80.89
79544;BME280;68994;47.176;7.534;2023-04-03T03:47:10;96334.50;;;5.77;79.70
79544;BME280;68994;47.176;7.534;2023-04-03T03:49:39;96334.22;;;5.85;79.89
79544;BME280;68994;47.176;7.534;2023-04-03T03:52:06;96335.66;;;5.81;79.41
79544;BME280;68994;47.176;7.534;2023-04-03T03:54:35;96339.56;;;5.79;79.12
79544;BME280;68994;47.176;7.534;2023-04-03T03:57:02;96336.03;;;5.85;77.71
79544;BME280;68994;47.176;7.534;2023-04-03T03:59:29;96345.88;;;5.78;78.16
79544;BME280;68994;47.176;7.534;2023-04-03T04:01:55;96340.72;;;5.64;79.32
79544;BME280;68994;47.176;7.534;2023-04-03T04:04:22;96352.22;;;5.76;77.28
79544;BME280;68994;47.176;7.534;2023-04-03T04:06:50;96350.44;;;5.70;76.89
79544;BME280;68994;47.176;7.534;2023-04-03T04:09:16;96355.63;;;5.58;78.18
79544;BME280;68994;47.176;7.534;2023-04-03T04:11:43;96359.88;;;5.60;78.96
79544;BME280;68994;47.176;7.534;2023-04-03T04:14:10;96357.06;;;5.54;77.93
79544;BME280;68994;47.176;7.534;2023-04-03T04:16:37;96359.88;;;5.60;78.52
79544;BME280;68994;47.176;7.534;2023-04-03T04:19:04;96357.91;;;5.55;78.43
79544;BME280;68994;47.176;7.534;2023-04-03T04:21:31;96356.88;;;5.56;79.36
79544;BME280;68994;47.176;7.534;2023-04-03T04:23:58;96364.81;;;5.56;78.40
79544;BME280;68994;47.176;7.534;2023-04-03T04:26:25;96360.25;;;5.45;78.90
79544;BME280;68994;47.176;7.534;2023-04-03T04:28:52;96381.16;;;5.46;78.85
79544;BME280;68994;47.176;7.534;2023-04-03T04:31:18;96362.88;;;5.45;78.58
79544;BME280;68994;47.176;7.534;2023-04-03T04:33:45;96364.91;;;5.43;78.61
79544;BME280;68994;47.176;7.534;2023-04-03T04:36:11;96363.56;;;5.33;79.09
79544;BME280;68994;47.176;7.534;2023-04-03T04:38:39;96369.03;;;5.38;79.47
79544;BME280;68994;47.176;7.534;2023-04-03T04:41:07;96365.00;;;5.29;80.30
79544;BME280;68994;47.176;7.534;2023-04-03T04:43:34;96372.69;;;5.37;79.00
79544;BME280;68994;47.176;7.534;2023-04-03T04:46:02;96371.53;;;5.58;78.34
79544;BME280;68994;47.176;7.534;2023-04-03T04:48:28;96363.69;;;5.45;77.02
79544;BME280;68994;47.176;7.534;2023-04-03T04:50:55;96376.38;;;5.36;77.45
79544;BME280;68994;47.176;7.534;2023-04-03T04:53:22;96372.34;;;5.27;78.01
79544;BME280;68994;47.176;7.534;2023-04-03T04:55:48;96373.63;;;5.25;78.63
79544;BME280;68994;47.176;7.534;2023-04-03T04:58:16;96383.63;;;5.16;77.03
79544;BME280;68994;47.176;7.534;2023-04-03T05:00:43;96376.47;;;5.23;77.59
79544;BME280;68994;47.176;7.534;2023-04-03T05:03:10;96374.88;;;5.15;77.51
79544;BME280;68994;47.176;7.534;2023-04-03T05:05:36;96382.44;;;5.12;78.30
79544;BME280;68994;47.176;7.534;2023-04-03T05:08:03;96381.38;;;5.19;78.15
79544;BME280;68994;47.176;7.534;2023-04-03T05:10:30;96388.69;;;5.17;76.75
79544;BME280;68994;47.176;7.534;2023-04-03T05:12:57;96389.06;;;5.21;75.79
79544;BME280;68994;47.176;7.534;2023-04-03T05:15:25;96392.22;;;5.11;75.87
79544;BME280;68994;47.176;7.534;2023-04-03T05:17:52;96394.44;;;5.08;76.75
79544;BME280;68994;47.176;7.534;2023-04-03T05:20:18;96392.09;;;4.99;75.64
79544;BME280;68994;47.176;7.534;2023-04-03T05:22:45;96395.56;;;4.93;77.22
79544;BME280;68994;47.176;7.534;2023-04-03T05:25:12;96396.53;;;4.99;76.43
79544;BME280;68994;47.176;7.534;2023-04-03T05:27:38;96394.88;;;5.11;76.39
79544;BME280;68994;47.176;7.534;2023-04-03T05:30:06;96394.91;;;5.05;77.03
79544;BME280;68994;47.176;7.534;2023-04-03T05:32:34;96400.41;;;5.03;76.49
79544;BME280;68994;47.176;7.534;2023-04-03T05:35:01;96398.94;;;5.07;76.93
79544;BME280;68994;47.176;7.534;2023-04-03T05:37:27;96401.72;;;5.19;74.63
79544;BME280;68994;47.176;7.534;2023-04-03T05:39:54;96400.16;;;5.11;76.18
79544;BME280;68994;47.176;7.534;2023-04-03T05:42:20;96407.97;;;4.99;76.93
79544;BME280;68994;47.176;7.534;2023-04-03T05:44:47;96404.09;;;4.95;76.65
79544;BME280;68994;47.176;7.534;2023-04-03T05:47:15;96403.09;;;4.96;76.84
79544;BME280;68994;47.176;7.534;2023-04-03T05:49:43;96408.72;;;5.07;74.40
79544;BME280;68994;47.176;7.534;2023-04-03T05:52:17;96398.91;;;5.14;76.21
79544;BME280;68994;47.176;7.534;2023-04-03T05:54:46;96407.00;;;5.19;74.54
79544;BME280;68994;47.176;7.534;2023-04-03T05:57:13;96403.25;;;5.01;76.10
79544;BME280;68994;47.176;7.534;2023-04-03T05:59:41;96400.44;;;4.96;75.33
79544;BME280;68994;47.176;7.534;2023-04-03T06:02:10;96400.53;;;5.15;74.91
79544;BME280;68994;47.176;7.534;2023-04-03T06:04:36;96406.91;;;5.00;75.47
79544;BME280;68994;47.176;7.534;2023-04-03T06:07:05;96412.78;;;5.02;75.93
79544;BME280;68994;47.176;7.534;2023-04-03T06:09:31;96404.69;;;4.97;74.99
79544;BME280;68994;47.176;7.534;2023-04-03T06:11:58;96409.56;;;5.00;75.22
79544;BME280;68994;47.176;7.534;2023-04-03T06:14:25;96407.50;;;5.02;74.89
79544;BME280;68994;47.176;7.534;2023-04-03T06:16:52;96409.97;;;4.97;76.59
79544;BME280;68994;47.176;7.534;2023-04-03T06:19:19;96416.06;;;5.05;76.46
79544;BME280;68994;47.176;7.534;2023-04-03T06:21:46;96409.94;;;5.04;76.09
79544;BME280;68994;47.176;7.534;2023-04-03T06:24:16;96414.78;;;5.14;75.21
79544;BME280;68994;47.176;7.534;2023-04-03T06:26:42;96405.91;;;5.01;75.98
79544;BME280;68994;47.176;7.534;2023-04-03T06:29:09;96415.03;;;5.06;75.77
79544;BME280;68994;47.176;7.534;2023-04-03T06:31:36;96418.94;;;4.96;75.99
79544;BME280;68994;47.176;7.534;2023-04-03T06:34:03;96418.09;;;5.02;77.24
79544;BME280;68994;47.176;7.534;2023-04-03T06:36:31;96424.13;;;5.16;76.77
79544;BME280;68994;47.176;7.534;2023-04-03T06:38:57;96427.38;;;5.18;76.45
79544;BME280;68994;47.176;7.534;2023-04-03T06:41:26;96429.44;;;5.16;74.63
79544;BME280;68994;47.176;7.534;2023-04-03T06:43:52;96422.28;;;5.17;75.64
79544;BME280;68994;47.176;7.534;2023-04-03T06:46:22;96424.97;;;5.10;73.97
79544;BME280;68994;47.176;7.534;2023-04-03T06:48:49;96430.09;;;5.05;75.29
79544;BME280;68994;47.176;7.534;2023-04-03T06:51:20;96433.31;;;5.07;74.97
79544;BME280;68994;47.176;7.534;2023-04-03T06:53:48;96440.47;;;5.07;74.35
79544;BME280;68994;47.176;7.534;2023-04-03T06:56:15;96437.56;;;5.15;74.03
79544;BME280;68994;47.176;7.534;2023-04-03T06:58:44;96443.53;;;5.04;73.06
79544;BME280;68994;47.176;7.534;2023-04-03T07:01:13;96442.75;;;4.96;74.07
79544;BME280;68994;47.176;7.534;2023-04-03T07:03:40;96440.09;;;4.96;74.84
79544;BME280;68994;47.176;7.534;2023-04-03T07:06:08;96453.19;;;4.85;75.88
79544;BME280;68994;47.176;7.534;2023-04-03T07:08:35;96447.25;;;4.89;76.03
79544;BME280;68994;47.176;7.534;2023-04-03T07:11:03;96445.41;;;4.96;74.50
79544;BME280;68994;47.176;7.534;2023-04-03T07:13:30;96442.34;;;4.99;73.63
79544;BME280;68994;47.176;7.534;2023-04-03T07:15:59;96450.31;;;5.31;72.00
79544;BME280;68994;47.176;7.534;2023-04-03T07:18:26;96443.72;;;5.02;73.24
79544;BME280;68994;47.176;7.534;2023-04-03T07:20:52;96445.09;;;5.18;73.00
79544;BME280;68994;47.176;7.534;2023-04-03T07:23:19;96448.31;;;5.20;70.93
79544;BME280;68994;47.176;7.534;2023-04-03T07:25:46;96450.97;;;5.20;70.80
79544;BME280;68994;47.176;7.534;2023-04-03T07:28:14;96448.88;;;5.29;70.62
79544;BME280;68994;47.176;7.534;2023-04-03T07:30:44;96456.06;;;5.22;72.95
79544;BME280;68994;47.176;7.534;2023-04-03T07:33:14;96451.28;;;5.37;72.58
79544;BME280;68994;47.176;7.534;2023-04-03T07:35:41;96456.91;;;5.47;71.99
79544;BME280;68994;47.176;7.534;2023-04-03T07:38:08;96463.63;;;5.50;71.51
79544;BME280;68994;47.176;7.534;2023-04-03T07:40:35;96460.38;;;5.48;70.86
79544;BME280;68994;47.176;7.534;2023-04-03T07:43:03;96470.34;;;5.46;71.22
79544;BME280;68994;47.176;7.534;2023-04-03T07:45:31;96458.81;;;5.40;71.91
79544;BME280;68994;47.176;7.534;2023-04-03T07:47:58;96455.59;;;5.63;70.09
79544;BME280;68994;47.176;7.534;2023-04-03T07:50:26;96463.72;;;5.68;69.14
79544;BME280;68994;47.176;7.534;2023-04-03T07:52:55;96461.13;;;5.87;70.60
79544;BME280;68994;47.176;7.534;2023-04-03T07:55:23;96458.91;;;5.84;70.02
79544;BME280;68994;47.176;7.534;2023-04-03T07:57:49;96462.78;;;5.81;69.54
79544;BME280;68994;47.176;7.534;2023-04-03T08:00:17;96461.88;;;5.94;69.28
79544;BME280;68994;47.176;7.534;2023-04-03T08:02:45;96462.22;;;6.04;69.84
79544;BME280;68994;47.176;7.534;2023-04-03T08:05:15;96457.38;;;6.20;68.96
79544;BME280;68994;47.176;7.534;2023-04-03T08:07:43;96460.28;;;6.37;69.62
79544;BME280;68994;47.176;7.534;2023-04-03T08:10:10;96459.66;;;6.60;68.22
79544;BME280;68994;47.176;7.534;2023-04-03T08:12:37;96462.44;;;6.83;67.79
79544;BME280;68994;47.176;7.534;2023-04-03T08:15:04;96459.41;;;6.98;64.78
79544;BME280;68994;47.176;7.534;2023-04-03T08:17:32;96451.72;;;7.09;65.17
79544;BME280;68994;47.176;7.534;2023-04-03T08:19:58;96455.41;;;7.26;65.15
79544;BME280;68994;47.176;7.534;2023-04-03T08:22:25;96461.50;;;7.27;66.09
79544;BME280;68994;47.176;7.534;2023-04-03T08:24:53;96458.84;;;7.57;64.86
79544;BME280;68994;47.176;7.534;2023-04-03T08:27:20;96456.13;;;7.87;60.62
79544;BME280;68994;47.176;7.534;2023-04-03T08:29:47;96456.63;;;8.08;59.49
79544;BME280;68994;47.176;7.534;2023-04-03T08:32:13;96453.97;;;8.08;59.19
79544;BME280;68994;47.176;7.534;2023-04-03T08:34:40;96454.22;;;8.18;61.09
79544;BME280;68994;47.176;7.534;2023-04-03T08:37:06;96457.44;;;7.96;58.34
79544;BME280;68994;47.176;7.534;2023-04-03T08:39:33;96462.97;;;8.07;59.50
79544;BME280;68994;47.176;7.534;2023-04-03T08:42:07;96462.53;;;8.10;57.27
79544;BME280;68994;47.176;7.534;2023-04-03T08:44:46;96462.28;;;7.99;57.81
79544;BME280;68994;47.176;7.534;2023-04-03T08:47:21;96455.44;;;7.80;58.65
79544;BME280;68994;47.176;7.534;2023-04-03T08:49:52;96463.97;;;7.82;58.06
79544;BME280;68994;47.176;7.534;2023-04-03T08:52:23;96464.22;;;7.92;57.67
79544;BME280;68994;47.176;7.534;2023-04-03T08:54:55;96471.81;;;7.77;59.04
79544;BME280;68994;47.176;7.534;2023-04-03T08:57:29;96468.81;;;7.73;57.11
79544;BME280;68994;47.176;7.534;2023-04-03T08:59:58;96475.00;;;7.55;56.98
79544;BME280;68994;47.176;7.534;2023-04-03T09:02:30;96474.84;;;7.50;57.15
79544;BME280;68994;47.176;7.534;2023-04-03T09:04:59;96475.56;;;7.57;57.74
79544;BME280;68994;47.176;7.534;2023-04-03T09:07:33;96481.03;;;7.63;57.06
79544;BME280;68994;47.176;7.534;2023-04-03T09:10:02;96478.38;;;7.63;56.32
79544;BME280;68994;47.176;7.534;2023-04-03T09:12:37;96477.00;;;7.72;56.02
79544;BME280;68994;47.176;7.534;2023-04-03T09:15:10;96485.25;;;7.94;54.03
79544;BME280;68994;47.176;7.534;2023-04-03T09:17:49;96479.34;;;7.92;54.08
79544;BME280;68994;47.176;7.534;2023-04-03T09:20:22;96473.59;;;8.07;54.27
79544;BME280;68994;47.176;7.534;2023-04-03T09:22:51;96479.75;;;8.31;52.97
79544;BME280;68994;47.176;7.534;2023-04-03T09:25:20;96470.72;;;8.79;53.58
79544;BME280;68994;47.176;7.534;2023-04-03T09:27:48;96457.19;;;9.21;52.49
79544;BME280;68994;47.176;7.534;2023-04-03T09:30:18;96465.75;;;9.52;52.41
79544;BME280;68994;47.176;7.534;2023-04-03T09:32:46;96467.50;;;9.92;50.35
79544;BME280;68994;47.176;7.534;2023-04-03T09:35:19;96460.78;;;11.24;48.25
79544;BME280;68994;47.176;7.534;2023-04-03T09:37:48;96461.41;;;12.13;44.86
79544;BME280;68994;47.176;7.534;2023-04-03T09:40:27;96458.91;;;12.86;45.88
79544;BME280;68994;47.176;7.534;2023-04-03T09:42:57;96460.34;;;12.99;44.20
79544;BME280;68994;47.176;7.534;2023-04-03T09:45:26;96458.16;;;13.85;41.28
79544;BME280;68994;47.176;7.534;2023-04-03T09:48:05;96457.31;;;13.59;38.29
79544;BME280;68994;47.176;7.534;2023-04-03T09:50:32;96463.97;;;15.55;39.49
79544;BME280;68994;47.176;7.534;2023-04-03T09:53:04;96460.13;;;16.99;35.06
79544;BME280;68994;47.176;7.534;2023-04-03T09:55:33;96457.03;;;17.73;33.70
79544;BME280;68994;47.176;7.534;2023-04-03T09:58:23;96458.22;;;18.38;33.31
79544;BME280;68994;47.176;7.534;2023-04-03T10:00:55;96458.16;;;17.91;32.47
79544;BME280;68994;47.176;7.534;2023-04-03T10:03:25;96454.22;;;19.23;31.71
79544;BME280;68994;47.176;7.534;2023-04-03T10:05:51;96451.41;;;20.38;27.94
79544;BME280;68994;47.176;7.534;2023-04-03T10:08:22;96454.81;;;19.06;28.69
79544;BME280;68994;47.176;7.534;2023-04-03T10:11:10;96469.78;;;17.05;29.95
79544;BME280;68994;47.176;7.534;2023-04-03T10:13:49;96457.78;;;16.33;32.71
79544;BME280;68994;47.176;7.534;2023-04-03T10:16:18;96461.03;;;15.51;33.22
79544;BME280;68994;47.176;7.534;2023-04-03T10:18:49;96464.34;;;14.42;38.27
79544;BME280;68994;47.176;7.534;2023-04-03T10:21:32;96466.50;;;14.04;34.79
79544;BME280;68994;47.176;7.534;2023-04-03T10:24:08;96470.22;;;13.67;38.59
79544;BME280;68994;47.176;7.534;2023-04-03T10:26:41;96464.31;;;13.65;40.67
79544;BME280;68994;47.176;7.534;2023-04-03T10:29:28;96454.91;;;13.62;39.09
79544;BME280;68994;47.176;7.534;2023-04-03T10:32:06;96456.28;;;13.90;37.63
79544;BME280;68994;47.176;7.534;2023-04-03T10:34:40;96459.50;;;13.87;37.70
79544;BME280;68994;47.176;7.534;2023-04-03T10:37:14;96454.94;;;14.19;40.05
79544;BME280;68994;47.176;7.534;2023-04-03T10:39:50;96457.06;;;14.78;39.01
79544;BME280;68994;47.176;7.534;2023-04-03T10:42:26;96446.06;;;14.49;37.94
79544;BME280;68994;47.176;7.534;2023-04-03T10:45:08;96445.56;;;14.32;38.86
79544;BME280;68994;47.176;7.534;2023-04-03T10:47:47;96448.53;;;13.05;36.05
79544;BME280;68994;47.176;7.534;2023-04-03T10:50:27;96455.47;;;12.91;37.64
79544;BME280;68994;47.176;7.534;2023-04-03T10:53:02;96453.56;;;12.86;38.61
79544;BME280;68994;47.176;7.534;2023-04-03T10:55:35;96446.31;;;12.87;39.10
79544;BME280;68994;47.176;7.534;2023-04-03T10:58:05;96454.72;;;12.53;39.18
79544;BME280;68994;47.176;7.534;2023-04-03T11:00:39;96453.22;;;11.92;37.37
79544;BME280;68994;47.176;7.534;2023-04-03T11:03:11;96458.41;;;12.04;41.48
79544;BME280;68994;47.176;7.534;2023-04-03T11:05:42;96450.78;;;12.23;40.09
79544;BME280;68994;47.176;7.534;2023-04-03T11:08:19;96455.28;;;12.60;40.22
79544;BME280;68994;47.176;7.534;2023-04-03T11:10:50;96451.94;;;12.85;37.87
79544;BME280;68994;47.176;7.534;2023-04-03T11:13:21;96441.38;;;13.21;38.34
79544;BME280;68994;47.176;7.534;2023-04-03T11:15:53;96443.38;;;13.51;38.65
79544;BME280;68994;47.176;7.534;2023-04-03T11:18:24;96440.19;;;14.01;38.64
79544;BME280;68994;47.176;7.534;2023-04-03T11:20:59;96443.97;;;14.00;36.32
79544;BME280;68994;47.176;7.534;2023-04-03T11:23:30;96436.97;;;13.68;36.83
79544;BME280;68994;47.176;7.534;2023-04-03T11:26:07;96432.13;;;13.85;36.91
79544;BME280;68994;47.176;7.534;2023-04-03T11:28:35;96436.94;;;14.65;37.38
79544;BME280;68994;47.176;7.534;2023-04-03T11:31:10;96429.09;;;14.74;34.57
79544;BME280;68994;47.176;7.534;2023-04-03T11:33:45;96431.03;;;14.33;35.92
79544;BME280;68994;47.176;7.534;2023-04-03T11:36:19;96430.00;;;13.87;36.46
79544;BME280;68994;47.176;7.534;2023-04-03T11:38:51;96436.97;;;14.19;39.72
79544;BME280;68994;47.176;7.534;2023-04-03T11:41:25;96432.81;;;14.94;36.30
79544;BME280;68994;47.176;7.534;2023-04-03T11:43:57;96425.56;;;15.49;36.88
79544;BME280;68994;47.176;7.534;2023-04-03T11:46:50;96437.13;;;15.45;36.03
79544;BME280;68994;47.176;7.534;2023-04-03T11:52:55;96426.50;;;16.67;32.81
79544;BME280;68994;47.176;7.534;2023-04-03T11:55:51;96421.47;;;15.97;33.71
79544;BME280;68994;47.176;7.534;2023-04-03T11:58:20;96433.00;;;15.13;34.20
79544;BME280;68994;47.176;7.534;2023-04-03T12:00:56;96427.59;;;16.07;33.40
79544;BME280;68994;47.176;7.534;2023-04-03T12:09:58;96421.78;;;16.54;31.16
79544;BME280;68994;47.176;7.534;2023-04-03T12:12:30;96421.06;;;15.84;32.41
79544;BME280;68994;47.176;7.534;2023-04-03T12:15:16;96413.81;;;15.30;34.31
79544;BME280;68994;47.176;7.534;2023-04-03T12:17:45;96418.19;;;14.14;32.46
79544;BME280;68994;47.176;7.534;2023-04-03T12:23:27;96416.66;;;12.40;36.27
79544;BME280;68994;47.176;7.534;2023-04-03T12:26:08;96420.41;;;11.75;37.43
79544;BME280;68994;47.176;7.534;2023-04-03T12:28:48;96421.06;;;11.32;37.72
79544;BME280;68994;47.176;7.534;2023-04-03T12:31:15;96425.59;;;11.05;39.33
79544;BME280;68994;47.176;7.534;2023-04-03T12:33:57;96409.38;;;11.66;40.98
79544;BME280;68994;47.176;7.534;2023-04-03T12:36:32;96418.63;;;11.85;38.18
79544;BME280;68994;47.176;7.534;2023-04-03T12:39:13;96416.16;;;11.79;38.84
79544;BME280;68994;47.176;7.534;2023-04-03T12:41:52;96424.69;;;11.76;37.59
79544;BME280;68994;47.176;7.534;2023-04-03T12:44:42;96409.25;;;12.63;38.09
79544;BME280;68994;47.176;7.534;2023-04-03T12:47:27;96399.38;;;12.21;39.50
79544;BME280;68994;47.176;7.534;2023-04-03T12:49:55;96408.56;;;11.93;38.43
79544;BME280;68994;47.176;7.534;2023-04-03T12:52:31;96408.19;;;11.51;40.00
79544;BME280;68994;47.176;7.534;2023-04-03T12:54:59;96397.53;;;11.29;38.36
79544;BME280;68994;47.176;7.534;2023-04-03T12:57:30;96402.81;;;10.53;39.96
79544;BME280;68994;47.176;7.534;2023-04-03T12:59:58;96411.25;;;10.89;41.14
79544;BME280;68994;47.176;7.534;2023-04-03T13:02:26;96413.88;;;10.84;41.11
79544;BME280;68994;47.176;7.534;2023-04-03T13:04:55;96401.22;;;11.23;43.39
79544;BME280;68994;47.176;7.534;2023-04-03T13:07:27;96398.69;;;11.39;42.81
79544;BME280;68994;47.176;7.534;2023-04-03T13:10:00;96400.25;;;10.85;42.74
79544;BME280;68994;47.176;7.534;2023-04-03T13:12:29;96399.03;;;10.71;43.33
79544;BME280;68994;47.176;7.534;2023-04-03T13:14:59;96405.00;;;10.56;42.55
79544;BME280;68994;47.176;7.534;2023-04-03T13:17:27;96401.91;;;10.64;42.39
79544;BME280;68994;47.176;7.534;2023-04-03T13:19:53;96398.28;;;10.53;40.53
79544;BME280;68994;47.176;7.534;2023-04-03T13:22:27;96396.53;;;10.25;40.60
79544;BME280;68994;47.176;7.534;2023-04-03T13:24:59;96395.81;;;10.30;41.59
79544;BME280;68994;47.176;7.534;2023-04-03T13:27:31;96397.03;;;10.05;41.64
79544;BME280;68994;47.176;7.534;2023-04-03T13:30:00;96401.25;;;10.01;42.67
79544;BME280;68994;47.176;7.534;2023-04-03T13:32:28;96397.84;;;9.89;42.31
79544;BME280;68994;47.176;7.534;2023-04-03T13:34:57;96396.09;;;9.77;43.54